<?xml version="1.0" encoding="UTF-8" standalone="no" ?>
<gpx xmlns="http://www.topografix.com/GPX/1/1" xmlns:xsi="http://www.w3.org/2001/XMLSchema-instance" xsi:schemaLocation="http://www.topografix.com/GPX/1/1 http://www.topografix.com/GPX/1/1/gpx.xsd" version="1.1" creator="VisuGPX - https://www.visugpx.com">
  <metadata>
    <name>Lac de Bonlieu</name>
    <desc><![CDATA[un circuit facile vers 
le lac glacière de Bonlieu]]></desc>
  </metadata>
  <trk>
    <name><![CDATA[BONLIEU LAC5:53:17]]></name>
    <trkseg>
      <trkpt lat="46.60051" lon="5.85384">
        <ele>788.9</ele>
        <time>2012-08-15T11:31:34Z</time>
      </trkpt>
      <trkpt lat="46.60052" lon="5.85378">
        <ele>787.94</ele>
        <time>2012-08-15T11:32:01Z</time>
      </trkpt>
      <trkpt lat="46.60051" lon="5.8538">
        <ele>790.34</ele>
        <time>2012-08-15T11:32:26Z</time>
      </trkpt>
      <trkpt lat="46.60051" lon="5.85382">
        <ele>788.42</ele>
        <time>2012-08-15T11:32:46Z</time>
      </trkpt>
      <trkpt lat="46.6005" lon="5.85392">
        <ele>787.94</ele>
        <time>2012-08-15T11:32:53Z</time>
      </trkpt>
      <trkpt lat="46.60048" lon="5.85398">
        <ele>788.42</ele>
        <time>2012-08-15T11:32:57Z</time>
      </trkpt>
      <trkpt lat="46.60046" lon="5.85409">
        <ele>788.42</ele>
        <time>2012-08-15T11:33:05Z</time>
      </trkpt>
      <trkpt lat="46.60043" lon="5.85415">
        <ele>788.42</ele>
        <time>2012-08-15T11:33:10Z</time>
      </trkpt>
      <trkpt lat="46.60035" lon="5.8543">
        <ele>787.46</ele>
        <time>2012-08-15T11:33:22Z</time>
      </trkpt>
      <trkpt lat="46.60027" lon="5.85439">
        <ele>786.98</ele>
        <time>2012-08-15T11:33:32Z</time>
      </trkpt>
      <trkpt lat="46.60012" lon="5.85446">
        <ele>784.57</ele>
        <time>2012-08-15T11:33:48Z</time>
      </trkpt>
      <trkpt lat="46.59992" lon="5.85457">
        <ele>782.65</ele>
        <time>2012-08-15T11:34:06Z</time>
      </trkpt>
      <trkpt lat="46.59972" lon="5.85465">
        <ele>781.69</ele>
        <time>2012-08-15T11:34:22Z</time>
      </trkpt>
      <trkpt lat="46.59957" lon="5.85467">
        <ele>779.77</ele>
        <time>2012-08-15T11:34:34Z</time>
      </trkpt>
      <trkpt lat="46.59946" lon="5.85472">
        <ele>778.32</ele>
        <time>2012-08-15T11:34:47Z</time>
      </trkpt>
      <trkpt lat="46.59943" lon="5.85472">
        <ele>778.32</ele>
        <time>2012-08-15T11:34:51Z</time>
      </trkpt>
      <trkpt lat="46.59936" lon="5.85472">
        <ele>777.84</ele>
        <time>2012-08-15T11:35:03Z</time>
      </trkpt>
      <trkpt lat="46.5993" lon="5.85472">
        <ele>779.29</ele>
        <time>2012-08-15T11:35:08Z</time>
      </trkpt>
      <trkpt lat="46.59907" lon="5.85472">
        <ele>777.84</ele>
        <time>2012-08-15T11:35:27Z</time>
      </trkpt>
      <trkpt lat="46.59888" lon="5.8547">
        <ele>778.32</ele>
        <time>2012-08-15T11:35:41Z</time>
      </trkpt>
      <trkpt lat="46.59867" lon="5.85465">
        <ele>777.84</ele>
        <time>2012-08-15T11:36:00Z</time>
      </trkpt>
      <trkpt lat="46.59859" lon="5.85466">
        <ele>777.36</ele>
        <time>2012-08-15T11:36:12Z</time>
      </trkpt>
      <trkpt lat="46.59851" lon="5.85464">
        <ele>778.81</ele>
        <time>2012-08-15T11:36:25Z</time>
      </trkpt>
      <trkpt lat="46.59842" lon="5.85459">
        <ele>777.84</ele>
        <time>2012-08-15T11:36:49Z</time>
      </trkpt>
      <trkpt lat="46.59841" lon="5.85459">
        <ele>777.84</ele>
        <time>2012-08-15T11:36:50Z</time>
      </trkpt>
      <trkpt lat="46.59833" lon="5.8546">
        <ele>777.36</ele>
        <time>2012-08-15T11:36:58Z</time>
      </trkpt>
      <trkpt lat="46.59813" lon="5.85462">
        <ele>777.36</ele>
        <time>2012-08-15T11:37:12Z</time>
      </trkpt>
      <trkpt lat="46.59811" lon="5.85463">
        <ele>777.36</ele>
        <time>2012-08-15T11:37:13Z</time>
      </trkpt>
      <trkpt lat="46.59796" lon="5.8547">
        <ele>776.88</ele>
        <time>2012-08-15T11:37:26Z</time>
      </trkpt>
      <trkpt lat="46.5979" lon="5.85472">
        <ele>776.88</ele>
        <time>2012-08-15T11:37:33Z</time>
      </trkpt>
      <trkpt lat="46.59781" lon="5.85472">
        <ele>776.4</ele>
        <time>2012-08-15T11:37:39Z</time>
      </trkpt>
      <trkpt lat="46.59763" lon="5.85482">
        <ele>775.92</ele>
        <time>2012-08-15T11:37:56Z</time>
      </trkpt>
      <trkpt lat="46.59752" lon="5.85497">
        <ele>776.4</ele>
        <time>2012-08-15T11:38:08Z</time>
      </trkpt>
      <trkpt lat="46.59735" lon="5.85515">
        <ele>776.88</ele>
        <time>2012-08-15T11:38:25Z</time>
      </trkpt>
      <trkpt lat="46.59721" lon="5.85519">
        <ele>778.32</ele>
        <time>2012-08-15T11:38:37Z</time>
      </trkpt>
      <trkpt lat="46.5972" lon="5.8552">
        <ele>777.84</ele>
        <time>2012-08-15T11:38:38Z</time>
      </trkpt>
      <trkpt lat="46.5971" lon="5.85544">
        <ele>778.32</ele>
        <time>2012-08-15T11:38:53Z</time>
      </trkpt>
      <trkpt lat="46.59703" lon="5.85569">
        <ele>778.81</ele>
        <time>2012-08-15T11:39:09Z</time>
      </trkpt>
      <trkpt lat="46.59701" lon="5.8558">
        <ele>779.29</ele>
        <time>2012-08-15T11:39:15Z</time>
      </trkpt>
      <trkpt lat="46.59698" lon="5.85584">
        <ele>779.29</ele>
        <time>2012-08-15T11:39:18Z</time>
      </trkpt>
      <trkpt lat="46.59695" lon="5.85612">
        <ele>779.77</ele>
        <time>2012-08-15T11:39:34Z</time>
      </trkpt>
      <trkpt lat="46.59697" lon="5.85622">
        <ele>779.77</ele>
        <time>2012-08-15T11:39:41Z</time>
      </trkpt>
      <trkpt lat="46.59696" lon="5.85632">
        <ele>780.25</ele>
        <time>2012-08-15T11:39:46Z</time>
      </trkpt>
      <trkpt lat="46.59692" lon="5.85656">
        <ele>780.25</ele>
        <time>2012-08-15T11:39:59Z</time>
      </trkpt>
      <trkpt lat="46.59691" lon="5.8566">
        <ele>780.25</ele>
        <time>2012-08-15T11:40:02Z</time>
      </trkpt>
      <trkpt lat="46.59691" lon="5.85685">
        <ele>780.73</ele>
        <time>2012-08-15T11:40:17Z</time>
      </trkpt>
      <trkpt lat="46.59691" lon="5.85687">
        <ele>780.73</ele>
        <time>2012-08-15T11:40:18Z</time>
      </trkpt>
      <trkpt lat="46.59689" lon="5.85704">
        <ele>782.65</ele>
        <time>2012-08-15T11:40:26Z</time>
      </trkpt>
      <trkpt lat="46.59686" lon="5.85734">
        <ele>782.17</ele>
        <time>2012-08-15T11:40:43Z</time>
      </trkpt>
      <trkpt lat="46.59686" lon="5.85753">
        <ele>782.17</ele>
        <time>2012-08-15T11:40:53Z</time>
      </trkpt>
      <trkpt lat="46.59682" lon="5.8578">
        <ele>783.13</ele>
        <time>2012-08-15T11:41:08Z</time>
      </trkpt>
      <trkpt lat="46.59682" lon="5.85785">
        <ele>783.13</ele>
        <time>2012-08-15T11:41:11Z</time>
      </trkpt>
      <trkpt lat="46.59678" lon="5.85806">
        <ele>783.13</ele>
        <time>2012-08-15T11:41:22Z</time>
      </trkpt>
      <trkpt lat="46.59674" lon="5.85823">
        <ele>783.13</ele>
        <time>2012-08-15T11:41:31Z</time>
      </trkpt>
      <trkpt lat="46.59675" lon="5.85839">
        <ele>783.13</ele>
        <time>2012-08-15T11:41:38Z</time>
      </trkpt>
      <trkpt lat="46.59677" lon="5.85854">
        <ele>783.13</ele>
        <time>2012-08-15T11:41:46Z</time>
      </trkpt>
      <trkpt lat="46.59675" lon="5.85879">
        <ele>784.09</ele>
        <time>2012-08-15T11:41:59Z</time>
      </trkpt>
      <trkpt lat="46.59673" lon="5.85899">
        <ele>784.09</ele>
        <time>2012-08-15T11:42:11Z</time>
      </trkpt>
      <trkpt lat="46.59675" lon="5.85911">
        <ele>784.57</ele>
        <time>2012-08-15T11:42:18Z</time>
      </trkpt>
      <trkpt lat="46.59675" lon="5.85923">
        <ele>785.05</ele>
        <time>2012-08-15T11:42:25Z</time>
      </trkpt>
      <trkpt lat="46.59678" lon="5.85941">
        <ele>785.05</ele>
        <time>2012-08-15T11:42:37Z</time>
      </trkpt>
      <trkpt lat="46.59681" lon="5.85948">
        <ele>785.53</ele>
        <time>2012-08-15T11:42:42Z</time>
      </trkpt>
      <trkpt lat="46.59682" lon="5.85958">
        <ele>785.53</ele>
        <time>2012-08-15T11:42:47Z</time>
      </trkpt>
      <trkpt lat="46.59687" lon="5.85985">
        <ele>786.02</ele>
        <time>2012-08-15T11:43:01Z</time>
      </trkpt>
      <trkpt lat="46.59693" lon="5.86013">
        <ele>786.02</ele>
        <time>2012-08-15T11:43:16Z</time>
      </trkpt>
      <trkpt lat="46.59699" lon="5.86035">
        <ele>786.5</ele>
        <time>2012-08-15T11:43:30Z</time>
      </trkpt>
      <trkpt lat="46.59704" lon="5.86062">
        <ele>786.98</ele>
        <time>2012-08-15T11:43:45Z</time>
      </trkpt>
      <trkpt lat="46.59704" lon="5.86085">
        <ele>786.98</ele>
        <time>2012-08-15T11:43:58Z</time>
      </trkpt>
      <trkpt lat="46.59702" lon="5.8611">
        <ele>786.98</ele>
        <time>2012-08-15T11:44:12Z</time>
      </trkpt>
      <trkpt lat="46.597" lon="5.8614">
        <ele>787.94</ele>
        <time>2012-08-15T11:44:29Z</time>
      </trkpt>
      <trkpt lat="46.59696" lon="5.86151">
        <ele>787.94</ele>
        <time>2012-08-15T11:44:35Z</time>
      </trkpt>
      <trkpt lat="46.59694" lon="5.86187">
        <ele>788.42</ele>
        <time>2012-08-15T11:44:52Z</time>
      </trkpt>
      <trkpt lat="46.59694" lon="5.8619">
        <ele>787.94</ele>
        <time>2012-08-15T11:44:55Z</time>
      </trkpt>
      <trkpt lat="46.5969" lon="5.86221">
        <ele>788.42</ele>
        <time>2012-08-15T11:45:13Z</time>
      </trkpt>
      <trkpt lat="46.59686" lon="5.86251">
        <ele>789.38</ele>
        <time>2012-08-15T11:45:28Z</time>
      </trkpt>
      <trkpt lat="46.59687" lon="5.86273">
        <ele>789.38</ele>
        <time>2012-08-15T11:45:43Z</time>
      </trkpt>
      <trkpt lat="46.59683" lon="5.86301">
        <ele>790.34</ele>
        <time>2012-08-15T11:45:58Z</time>
      </trkpt>
      <trkpt lat="46.59683" lon="5.86305">
        <ele>789.86</ele>
        <time>2012-08-15T11:46:00Z</time>
      </trkpt>
      <trkpt lat="46.59677" lon="5.86328">
        <ele>790.34</ele>
        <time>2012-08-15T11:46:13Z</time>
      </trkpt>
      <trkpt lat="46.59678" lon="5.86361">
        <ele>791.3</ele>
        <time>2012-08-15T11:46:31Z</time>
      </trkpt>
      <trkpt lat="46.59675" lon="5.86382">
        <ele>791.78</ele>
        <time>2012-08-15T11:46:43Z</time>
      </trkpt>
      <trkpt lat="46.59676" lon="5.86406">
        <ele>789.86</ele>
        <time>2012-08-15T11:46:57Z</time>
      </trkpt>
      <trkpt lat="46.59679" lon="5.86427">
        <ele>788.42</ele>
        <time>2012-08-15T11:47:10Z</time>
      </trkpt>
      <trkpt lat="46.59672" lon="5.86455">
        <ele>788.42</ele>
        <time>2012-08-15T11:47:23Z</time>
      </trkpt>
      <trkpt lat="46.5967" lon="5.8646">
        <ele>787.94</ele>
        <time>2012-08-15T11:47:27Z</time>
      </trkpt>
      <trkpt lat="46.59665" lon="5.86491">
        <ele>787.94</ele>
        <time>2012-08-15T11:47:43Z</time>
      </trkpt>
      <trkpt lat="46.59662" lon="5.86521">
        <ele>788.42</ele>
        <time>2012-08-15T11:47:59Z</time>
      </trkpt>
      <trkpt lat="46.59656" lon="5.86558">
        <ele>789.86</ele>
        <time>2012-08-15T11:48:19Z</time>
      </trkpt>
      <trkpt lat="46.59649" lon="5.86586">
        <ele>790.82</ele>
        <time>2012-08-15T11:48:35Z</time>
      </trkpt>
      <trkpt lat="46.59642" lon="5.86608">
        <ele>792.26</ele>
        <time>2012-08-15T11:48:48Z</time>
      </trkpt>
      <trkpt lat="46.59642" lon="5.86623">
        <ele>792.26</ele>
        <time>2012-08-15T11:49:02Z</time>
      </trkpt>
      <trkpt lat="46.59636" lon="5.86644">
        <ele>793.22</ele>
        <time>2012-08-15T11:49:20Z</time>
      </trkpt>
      <trkpt lat="46.5963" lon="5.86669">
        <ele>793.22</ele>
        <time>2012-08-15T11:49:33Z</time>
      </trkpt>
      <trkpt lat="46.59621" lon="5.86686">
        <ele>793.71</ele>
        <time>2012-08-15T11:49:45Z</time>
      </trkpt>
      <trkpt lat="46.59607" lon="5.86705">
        <ele>795.63</ele>
        <time>2012-08-15T11:50:01Z</time>
      </trkpt>
      <trkpt lat="46.59606" lon="5.86704">
        <ele>795.63</ele>
        <time>2012-08-15T11:50:02Z</time>
      </trkpt>
      <trkpt lat="46.59591" lon="5.86696">
        <ele>797.07</ele>
        <time>2012-08-15T11:50:19Z</time>
      </trkpt>
      <trkpt lat="46.59583" lon="5.86698">
        <ele>797.55</ele>
        <time>2012-08-15T11:50:32Z</time>
      </trkpt>
      <trkpt lat="46.59583" lon="5.86707">
        <ele>798.51</ele>
        <time>2012-08-15T11:50:38Z</time>
      </trkpt>
      <trkpt lat="46.59583" lon="5.86717">
        <ele>798.51</ele>
        <time>2012-08-15T11:50:44Z</time>
      </trkpt>
      <trkpt lat="46.59583" lon="5.86727">
        <ele>798.99</ele>
        <time>2012-08-15T11:50:49Z</time>
      </trkpt>
      <trkpt lat="46.59589" lon="5.8675">
        <ele>799.47</ele>
        <time>2012-08-15T11:51:05Z</time>
      </trkpt>
      <trkpt lat="46.59594" lon="5.86758">
        <ele>799.95</ele>
        <time>2012-08-15T11:51:11Z</time>
      </trkpt>
      <trkpt lat="46.59604" lon="5.86779">
        <ele>800.44</ele>
        <time>2012-08-15T11:51:26Z</time>
      </trkpt>
      <trkpt lat="46.59615" lon="5.86804">
        <ele>801.4</ele>
        <time>2012-08-15T11:51:45Z</time>
      </trkpt>
      <trkpt lat="46.5962" lon="5.86818">
        <ele>801.88</ele>
        <time>2012-08-15T11:51:53Z</time>
      </trkpt>
      <trkpt lat="46.59633" lon="5.8685">
        <ele>802.84</ele>
        <time>2012-08-15T11:52:12Z</time>
      </trkpt>
      <trkpt lat="46.59642" lon="5.8688">
        <ele>803.32</ele>
        <time>2012-08-15T11:52:28Z</time>
      </trkpt>
      <trkpt lat="46.59646" lon="5.8689">
        <ele>803.32</ele>
        <time>2012-08-15T11:52:38Z</time>
      </trkpt>
      <trkpt lat="46.59654" lon="5.8691">
        <ele>803.8</ele>
        <time>2012-08-15T11:52:53Z</time>
      </trkpt>
      <trkpt lat="46.59655" lon="5.86911">
        <ele>803.8</ele>
        <time>2012-08-15T11:52:54Z</time>
      </trkpt>
      <trkpt lat="46.59669" lon="5.86937">
        <ele>804.28</ele>
        <time>2012-08-15T11:53:11Z</time>
      </trkpt>
      <trkpt lat="46.59677" lon="5.8696">
        <ele>805.72</ele>
        <time>2012-08-15T11:53:24Z</time>
      </trkpt>
      <trkpt lat="46.59688" lon="5.86984">
        <ele>805.72</ele>
        <time>2012-08-15T11:53:41Z</time>
      </trkpt>
      <trkpt lat="46.59698" lon="5.87006">
        <ele>806.2</ele>
        <time>2012-08-15T11:53:56Z</time>
      </trkpt>
      <trkpt lat="46.59703" lon="5.87014">
        <ele>806.68</ele>
        <time>2012-08-15T11:54:02Z</time>
      </trkpt>
      <trkpt lat="46.59714" lon="5.87037">
        <ele>807.64</ele>
        <time>2012-08-15T11:54:17Z</time>
      </trkpt>
      <trkpt lat="46.59718" lon="5.87047">
        <ele>808.13</ele>
        <time>2012-08-15T11:54:22Z</time>
      </trkpt>
      <trkpt lat="46.59724" lon="5.87056">
        <ele>808.61</ele>
        <time>2012-08-15T11:54:28Z</time>
      </trkpt>
      <trkpt lat="46.59728" lon="5.8707">
        <ele>808.61</ele>
        <time>2012-08-15T11:54:35Z</time>
      </trkpt>
      <trkpt lat="46.59737" lon="5.87088">
        <ele>808.61</ele>
        <time>2012-08-15T11:54:47Z</time>
      </trkpt>
      <trkpt lat="46.59741" lon="5.87103">
        <ele>809.57</ele>
        <time>2012-08-15T11:54:57Z</time>
      </trkpt>
      <trkpt lat="46.59742" lon="5.87106">
        <ele>809.57</ele>
        <time>2012-08-15T11:54:59Z</time>
      </trkpt>
      <trkpt lat="46.59731" lon="5.87126">
        <ele>810.53</ele>
        <time>2012-08-15T11:55:14Z</time>
      </trkpt>
      <trkpt lat="46.5973" lon="5.87127">
        <ele>810.53</ele>
        <time>2012-08-15T11:55:15Z</time>
      </trkpt>
      <trkpt lat="46.59713" lon="5.87138">
        <ele>811.01</ele>
        <time>2012-08-15T11:55:30Z</time>
      </trkpt>
      <trkpt lat="46.59697" lon="5.8713">
        <ele>810.53</ele>
        <time>2012-08-15T11:55:44Z</time>
      </trkpt>
      <trkpt lat="46.5969" lon="5.87125">
        <ele>811.01</ele>
        <time>2012-08-15T11:55:51Z</time>
      </trkpt>
      <trkpt lat="46.59672" lon="5.87116">
        <ele>810.53</ele>
        <time>2012-08-15T11:56:05Z</time>
      </trkpt>
      <trkpt lat="46.59671" lon="5.87116">
        <ele>810.53</ele>
        <time>2012-08-15T11:56:06Z</time>
      </trkpt>
      <trkpt lat="46.59657" lon="5.87112">
        <ele>811.01</ele>
        <time>2012-08-15T11:56:17Z</time>
      </trkpt>
      <trkpt lat="46.59654" lon="5.87111">
        <ele>810.53</ele>
        <time>2012-08-15T11:56:20Z</time>
      </trkpt>
      <trkpt lat="46.59637" lon="5.87114">
        <ele>810.05</ele>
        <time>2012-08-15T11:56:33Z</time>
      </trkpt>
      <trkpt lat="46.59633" lon="5.87114">
        <ele>809.57</ele>
        <time>2012-08-15T11:56:39Z</time>
      </trkpt>
      <trkpt lat="46.59611" lon="5.87119">
        <ele>808.61</ele>
        <time>2012-08-15T11:56:52Z</time>
      </trkpt>
      <trkpt lat="46.59591" lon="5.87131">
        <ele>809.57</ele>
        <time>2012-08-15T11:57:08Z</time>
      </trkpt>
      <trkpt lat="46.59574" lon="5.87153">
        <ele>808.61</ele>
        <time>2012-08-15T11:57:25Z</time>
      </trkpt>
      <trkpt lat="46.59559" lon="5.87168">
        <ele>808.13</ele>
        <time>2012-08-15T11:57:38Z</time>
      </trkpt>
      <trkpt lat="46.59546" lon="5.87176">
        <ele>807.64</ele>
        <time>2012-08-15T11:57:52Z</time>
      </trkpt>
      <trkpt lat="46.59523" lon="5.87187">
        <ele>805.72</ele>
        <time>2012-08-15T11:58:08Z</time>
      </trkpt>
      <trkpt lat="46.5951" lon="5.87195">
        <ele>804.76</ele>
        <time>2012-08-15T11:58:22Z</time>
      </trkpt>
      <trkpt lat="46.59506" lon="5.87203">
        <ele>804.28</ele>
        <time>2012-08-15T11:58:39Z</time>
      </trkpt>
      <trkpt lat="46.59502" lon="5.8721">
        <ele>804.28</ele>
        <time>2012-08-15T11:58:43Z</time>
      </trkpt>
      <trkpt lat="46.59495" lon="5.87214">
        <ele>802.84</ele>
        <time>2012-08-15T11:58:53Z</time>
      </trkpt>
      <trkpt lat="46.59492" lon="5.87222">
        <ele>802.84</ele>
        <time>2012-08-15T11:58:57Z</time>
      </trkpt>
      <trkpt lat="46.59479" lon="5.87238">
        <ele>802.36</ele>
        <time>2012-08-15T11:59:09Z</time>
      </trkpt>
      <trkpt lat="46.59472" lon="5.8725">
        <ele>801.88</ele>
        <time>2012-08-15T11:59:17Z</time>
      </trkpt>
      <trkpt lat="46.59467" lon="5.87257">
        <ele>801.88</ele>
        <time>2012-08-15T11:59:22Z</time>
      </trkpt>
      <trkpt lat="46.59464" lon="5.87262">
        <ele>802.36</ele>
        <time>2012-08-15T11:59:28Z</time>
      </trkpt>
      <trkpt lat="46.59459" lon="5.87271">
        <ele>802.36</ele>
        <time>2012-08-15T11:59:32Z</time>
      </trkpt>
      <trkpt lat="46.59446" lon="5.87289">
        <ele>800.92</ele>
        <time>2012-08-15T11:59:46Z</time>
      </trkpt>
      <trkpt lat="46.59446" lon="5.87289">
        <ele>801.4</ele>
        <time>2012-08-15T12:00:01Z</time>
      </trkpt>
      <trkpt lat="46.59444" lon="5.87296">
        <ele>800.92</ele>
        <time>2012-08-15T12:00:10Z</time>
      </trkpt>
      <trkpt lat="46.59441" lon="5.87304">
        <ele>800.92</ele>
        <time>2012-08-15T12:00:14Z</time>
      </trkpt>
      <trkpt lat="46.59437" lon="5.87315">
        <ele>800.44</ele>
        <time>2012-08-15T12:00:21Z</time>
      </trkpt>
      <trkpt lat="46.59428" lon="5.87339">
        <ele>800.44</ele>
        <time>2012-08-15T12:00:33Z</time>
      </trkpt>
      <trkpt lat="46.59428" lon="5.87342">
        <ele>799.95</ele>
        <time>2012-08-15T12:00:35Z</time>
      </trkpt>
      <trkpt lat="46.59428" lon="5.87355">
        <ele>799.95</ele>
        <time>2012-08-15T12:00:40Z</time>
      </trkpt>
      <trkpt lat="46.59422" lon="5.87377">
        <ele>799.95</ele>
        <time>2012-08-15T12:00:57Z</time>
      </trkpt>
      <trkpt lat="46.59419" lon="5.87383">
        <ele>799.95</ele>
        <time>2012-08-15T12:01:10Z</time>
      </trkpt>
      <trkpt lat="46.59419" lon="5.87383">
        <ele>799.95</ele>
        <time>2012-08-15T12:01:22Z</time>
      </trkpt>
      <trkpt lat="46.59423" lon="5.87394">
        <ele>799.47</ele>
        <time>2012-08-15T12:01:34Z</time>
      </trkpt>
      <trkpt lat="46.59423" lon="5.87397">
        <ele>799.47</ele>
        <time>2012-08-15T12:01:37Z</time>
      </trkpt>
      <trkpt lat="46.59421" lon="5.87401">
        <ele>799.47</ele>
        <time>2012-08-15T12:01:53Z</time>
      </trkpt>
      <trkpt lat="46.59425" lon="5.87402">
        <ele>798.99</ele>
        <time>2012-08-15T12:02:08Z</time>
      </trkpt>
      <trkpt lat="46.59423" lon="5.874">
        <ele>799.47</ele>
        <time>2012-08-15T12:02:19Z</time>
      </trkpt>
      <trkpt lat="46.59421" lon="5.87401">
        <ele>798.99</ele>
        <time>2012-08-15T12:02:35Z</time>
      </trkpt>
      <trkpt lat="46.59421" lon="5.874">
        <ele>798.99</ele>
        <time>2012-08-15T12:02:37Z</time>
      </trkpt>
      <trkpt lat="46.59422" lon="5.87398">
        <ele>798.99</ele>
        <time>2012-08-15T12:02:39Z</time>
      </trkpt>
      <trkpt lat="46.59423" lon="5.87388">
        <ele>798.99</ele>
        <time>2012-08-15T12:02:45Z</time>
      </trkpt>
      <trkpt lat="46.59422" lon="5.87384">
        <ele>798.99</ele>
        <time>2012-08-15T12:02:47Z</time>
      </trkpt>
      <trkpt lat="46.59417" lon="5.87378">
        <ele>799.47</ele>
        <time>2012-08-15T12:02:53Z</time>
      </trkpt>
      <trkpt lat="46.59397" lon="5.87366">
        <ele>799.95</ele>
        <time>2012-08-15T12:03:11Z</time>
      </trkpt>
      <trkpt lat="46.59372" lon="5.87351">
        <ele>799.47</ele>
        <time>2012-08-15T12:03:31Z</time>
      </trkpt>
      <trkpt lat="46.59354" lon="5.87337">
        <ele>800.44</ele>
        <time>2012-08-15T12:03:47Z</time>
      </trkpt>
      <trkpt lat="46.59338" lon="5.87321">
        <ele>800.92</ele>
        <time>2012-08-15T12:04:03Z</time>
      </trkpt>
      <trkpt lat="46.59324" lon="5.8731">
        <ele>800.44</ele>
        <time>2012-08-15T12:04:17Z</time>
      </trkpt>
      <trkpt lat="46.59298" lon="5.87292">
        <ele>800.44</ele>
        <time>2012-08-15T12:04:37Z</time>
      </trkpt>
      <trkpt lat="46.59276" lon="5.87276">
        <ele>801.4</ele>
        <time>2012-08-15T12:04:56Z</time>
      </trkpt>
      <trkpt lat="46.59257" lon="5.87264">
        <ele>801.88</ele>
        <time>2012-08-15T12:05:12Z</time>
      </trkpt>
      <trkpt lat="46.59235" lon="5.87251">
        <ele>802.36</ele>
        <time>2012-08-15T12:05:29Z</time>
      </trkpt>
      <trkpt lat="46.59216" lon="5.87237">
        <ele>801.88</ele>
        <time>2012-08-15T12:05:44Z</time>
      </trkpt>
      <trkpt lat="46.59199" lon="5.87222">
        <ele>802.36</ele>
        <time>2012-08-15T12:06:00Z</time>
      </trkpt>
      <trkpt lat="46.59186" lon="5.8721">
        <ele>802.84</ele>
        <time>2012-08-15T12:06:15Z</time>
      </trkpt>
      <trkpt lat="46.59156" lon="5.87202">
        <ele>803.32</ele>
        <time>2012-08-15T12:06:37Z</time>
      </trkpt>
      <trkpt lat="46.59153" lon="5.87201">
        <ele>803.8</ele>
        <time>2012-08-15T12:06:39Z</time>
      </trkpt>
      <trkpt lat="46.59134" lon="5.87194">
        <ele>804.28</ele>
        <time>2012-08-15T12:06:55Z</time>
      </trkpt>
      <trkpt lat="46.59115" lon="5.87186">
        <ele>804.28</ele>
        <time>2012-08-15T12:07:08Z</time>
      </trkpt>
      <trkpt lat="46.59101" lon="5.87174">
        <ele>803.32</ele>
        <time>2012-08-15T12:07:20Z</time>
      </trkpt>
      <trkpt lat="46.59099" lon="5.87173">
        <ele>803.32</ele>
        <time>2012-08-15T12:07:22Z</time>
      </trkpt>
      <trkpt lat="46.59091" lon="5.87164">
        <ele>803.8</ele>
        <time>2012-08-15T12:07:28Z</time>
      </trkpt>
      <trkpt lat="46.59082" lon="5.87133">
        <ele>803.8</ele>
        <time>2012-08-15T12:07:46Z</time>
      </trkpt>
      <trkpt lat="46.59079" lon="5.87108">
        <ele>803.32</ele>
        <time>2012-08-15T12:08:00Z</time>
      </trkpt>
      <trkpt lat="46.59079" lon="5.87107">
        <ele>803.32</ele>
        <time>2012-08-15T12:08:01Z</time>
      </trkpt>
      <trkpt lat="46.59078" lon="5.87098">
        <ele>804.28</ele>
        <time>2012-08-15T12:08:05Z</time>
      </trkpt>
      <trkpt lat="46.59073" lon="5.87085">
        <ele>804.28</ele>
        <time>2012-08-15T12:08:13Z</time>
      </trkpt>
      <trkpt lat="46.59063" lon="5.87062">
        <ele>805.24</ele>
        <time>2012-08-15T12:08:26Z</time>
      </trkpt>
      <trkpt lat="46.59056" lon="5.87041">
        <ele>805.24</ele>
        <time>2012-08-15T12:08:38Z</time>
      </trkpt>
      <trkpt lat="46.59042" lon="5.87028">
        <ele>806.2</ele>
        <time>2012-08-15T12:08:51Z</time>
      </trkpt>
      <trkpt lat="46.59028" lon="5.87008">
        <ele>807.64</ele>
        <time>2012-08-15T12:09:05Z</time>
      </trkpt>
      <trkpt lat="46.59016" lon="5.87001">
        <ele>808.13</ele>
        <time>2012-08-15T12:09:16Z</time>
      </trkpt>
      <trkpt lat="46.5901" lon="5.86998">
        <ele>807.16</ele>
        <time>2012-08-15T12:09:21Z</time>
      </trkpt>
      <trkpt lat="46.58995" lon="5.86989">
        <ele>807.64</ele>
        <time>2012-08-15T12:09:34Z</time>
      </trkpt>
      <trkpt lat="46.58977" lon="5.86975">
        <ele>807.64</ele>
        <time>2012-08-15T12:09:51Z</time>
      </trkpt>
      <trkpt lat="46.5896" lon="5.86964">
        <ele>806.68</ele>
        <time>2012-08-15T12:10:06Z</time>
      </trkpt>
      <trkpt lat="46.58933" lon="5.86955">
        <ele>805.24</ele>
        <time>2012-08-15T12:10:23Z</time>
      </trkpt>
      <trkpt lat="46.58929" lon="5.86955">
        <ele>805.24</ele>
        <time>2012-08-15T12:10:31Z</time>
      </trkpt>
      <trkpt lat="46.58921" lon="5.86957">
        <ele>804.76</ele>
        <time>2012-08-15T12:10:35Z</time>
      </trkpt>
      <trkpt lat="46.58899" lon="5.86957">
        <ele>804.28</ele>
        <time>2012-08-15T12:10:53Z</time>
      </trkpt>
      <trkpt lat="46.58882" lon="5.86951">
        <ele>802.84</ele>
        <time>2012-08-15T12:11:09Z</time>
      </trkpt>
      <trkpt lat="46.58863" lon="5.86949">
        <ele>802.36</ele>
        <time>2012-08-15T12:11:23Z</time>
      </trkpt>
      <trkpt lat="46.5884" lon="5.8694">
        <ele>802.84</ele>
        <time>2012-08-15T12:11:40Z</time>
      </trkpt>
      <trkpt lat="46.58832" lon="5.86933">
        <ele>802.84</ele>
        <time>2012-08-15T12:11:55Z</time>
      </trkpt>
      <trkpt lat="46.58814" lon="5.86925">
        <ele>802.84</ele>
        <time>2012-08-15T12:12:11Z</time>
      </trkpt>
      <trkpt lat="46.58797" lon="5.86919">
        <ele>802.36</ele>
        <time>2012-08-15T12:12:23Z</time>
      </trkpt>
      <trkpt lat="46.58794" lon="5.86919">
        <ele>802.36</ele>
        <time>2012-08-15T12:12:25Z</time>
      </trkpt>
      <trkpt lat="46.58771" lon="5.86917">
        <ele>801.88</ele>
        <time>2012-08-15T12:12:41Z</time>
      </trkpt>
      <trkpt lat="46.5875" lon="5.86909">
        <ele>801.88</ele>
        <time>2012-08-15T12:12:58Z</time>
      </trkpt>
      <trkpt lat="46.58725" lon="5.86903">
        <ele>802.84</ele>
        <time>2012-08-15T12:13:16Z</time>
      </trkpt>
      <trkpt lat="46.58721" lon="5.86901">
        <ele>802.84</ele>
        <time>2012-08-15T12:13:20Z</time>
      </trkpt>
      <trkpt lat="46.58707" lon="5.86893">
        <ele>802.84</ele>
        <time>2012-08-15T12:13:32Z</time>
      </trkpt>
      <trkpt lat="46.58689" lon="5.86886">
        <ele>803.32</ele>
        <time>2012-08-15T12:13:47Z</time>
      </trkpt>
      <trkpt lat="46.58674" lon="5.86871">
        <ele>803.32</ele>
        <time>2012-08-15T12:14:00Z</time>
      </trkpt>
      <trkpt lat="46.58643" lon="5.86853">
        <ele>803.8</ele>
        <time>2012-08-15T12:14:18Z</time>
      </trkpt>
      <trkpt lat="46.58628" lon="5.86832">
        <ele>804.76</ele>
        <time>2012-08-15T12:14:36Z</time>
      </trkpt>
      <trkpt lat="46.58611" lon="5.86819">
        <ele>804.28</ele>
        <time>2012-08-15T12:14:50Z</time>
      </trkpt>
      <trkpt lat="46.58584" lon="5.8681">
        <ele>804.28</ele>
        <time>2012-08-15T12:15:09Z</time>
      </trkpt>
      <trkpt lat="46.58566" lon="5.86805">
        <ele>805.24</ele>
        <time>2012-08-15T12:15:26Z</time>
      </trkpt>
      <trkpt lat="46.58543" lon="5.86803">
        <ele>806.2</ele>
        <time>2012-08-15T12:15:44Z</time>
      </trkpt>
      <trkpt lat="46.58521" lon="5.86781">
        <ele>806.68</ele>
        <time>2012-08-15T12:16:04Z</time>
      </trkpt>
      <trkpt lat="46.58508" lon="5.86772">
        <ele>807.16</ele>
        <time>2012-08-15T12:16:11Z</time>
      </trkpt>
      <trkpt lat="46.58493" lon="5.86756">
        <ele>808.61</ele>
        <time>2012-08-15T12:16:28Z</time>
      </trkpt>
      <trkpt lat="46.58489" lon="5.86748">
        <ele>808.61</ele>
        <time>2012-08-15T12:16:33Z</time>
      </trkpt>
      <trkpt lat="46.58478" lon="5.86722">
        <ele>810.05</ele>
        <time>2012-08-15T12:16:51Z</time>
      </trkpt>
      <trkpt lat="46.58466" lon="5.86702">
        <ele>811.01</ele>
        <time>2012-08-15T12:17:06Z</time>
      </trkpt>
      <trkpt lat="46.58457" lon="5.86679">
        <ele>810.53</ele>
        <time>2012-08-15T12:17:20Z</time>
      </trkpt>
      <trkpt lat="46.58443" lon="5.86662">
        <ele>811.97</ele>
        <time>2012-08-15T12:17:37Z</time>
      </trkpt>
      <trkpt lat="46.58435" lon="5.8664">
        <ele>812.45</ele>
        <time>2012-08-15T12:17:55Z</time>
      </trkpt>
      <trkpt lat="46.58424" lon="5.86651">
        <ele>811.97</ele>
        <time>2012-08-15T12:18:04Z</time>
      </trkpt>
      <trkpt lat="46.5842" lon="5.86662">
        <ele>812.45</ele>
        <time>2012-08-15T12:18:18Z</time>
      </trkpt>
      <trkpt lat="46.5842" lon="5.86663">
        <ele>812.45</ele>
        <time>2012-08-15T12:18:19Z</time>
      </trkpt>
      <trkpt lat="46.58422" lon="5.8669">
        <ele>811.49</ele>
        <time>2012-08-15T12:18:34Z</time>
      </trkpt>
      <trkpt lat="46.58421" lon="5.86718">
        <ele>809.57</ele>
        <time>2012-08-15T12:18:50Z</time>
      </trkpt>
      <trkpt lat="46.5842" lon="5.86719">
        <ele>809.09</ele>
        <time>2012-08-15T12:18:51Z</time>
      </trkpt>
      <trkpt lat="46.58419" lon="5.86725">
        <ele>809.09</ele>
        <time>2012-08-15T12:18:54Z</time>
      </trkpt>
      <trkpt lat="46.5843" lon="5.86758">
        <ele>807.16</ele>
        <time>2012-08-15T12:19:14Z</time>
      </trkpt>
      <trkpt lat="46.58431" lon="5.8676">
        <ele>806.68</ele>
        <time>2012-08-15T12:19:17Z</time>
      </trkpt>
      <trkpt lat="46.58429" lon="5.86768">
        <ele>806.68</ele>
        <time>2012-08-15T12:19:21Z</time>
      </trkpt>
      <trkpt lat="46.58427" lon="5.86778">
        <ele>805.72</ele>
        <time>2012-08-15T12:19:29Z</time>
      </trkpt>
      <trkpt lat="46.58429" lon="5.86783">
        <ele>805.24</ele>
        <time>2012-08-15T12:19:31Z</time>
      </trkpt>
      <trkpt lat="46.58437" lon="5.86801">
        <ele>804.28</ele>
        <time>2012-08-15T12:19:42Z</time>
      </trkpt>
      <trkpt lat="46.58432" lon="5.86821">
        <ele>803.32</ele>
        <time>2012-08-15T12:19:58Z</time>
      </trkpt>
      <trkpt lat="46.58423" lon="5.86852">
        <ele>802.36</ele>
        <time>2012-08-15T12:20:18Z</time>
      </trkpt>
      <trkpt lat="46.58413" lon="5.86886">
        <ele>801.88</ele>
        <time>2012-08-15T12:20:37Z</time>
      </trkpt>
      <trkpt lat="46.58404" lon="5.86915">
        <ele>801.88</ele>
        <time>2012-08-15T12:20:54Z</time>
      </trkpt>
      <trkpt lat="46.58396" lon="5.86943">
        <ele>800.92</ele>
        <time>2012-08-15T12:21:10Z</time>
      </trkpt>
      <trkpt lat="46.58379" lon="5.86962">
        <ele>800.44</ele>
        <time>2012-08-15T12:21:26Z</time>
      </trkpt>
      <trkpt lat="46.58379" lon="5.86974">
        <ele>800.44</ele>
        <time>2012-08-15T12:21:30Z</time>
      </trkpt>
      <trkpt lat="46.58374" lon="5.87009">
        <ele>799.95</ele>
        <time>2012-08-15T12:21:49Z</time>
      </trkpt>
      <trkpt lat="46.58367" lon="5.87019">
        <ele>799.95</ele>
        <time>2012-08-15T12:21:58Z</time>
      </trkpt>
      <trkpt lat="46.58359" lon="5.8703">
        <ele>799.95</ele>
        <time>2012-08-15T12:22:06Z</time>
      </trkpt>
      <trkpt lat="46.5835" lon="5.87042">
        <ele>799.95</ele>
        <time>2012-08-15T12:22:15Z</time>
      </trkpt>
      <trkpt lat="46.58347" lon="5.87051">
        <ele>799.47</ele>
        <time>2012-08-15T12:22:20Z</time>
      </trkpt>
      <trkpt lat="46.58338" lon="5.87068">
        <ele>798.99</ele>
        <time>2012-08-15T12:22:32Z</time>
      </trkpt>
      <trkpt lat="46.58338" lon="5.87074">
        <ele>799.47</ele>
        <time>2012-08-15T12:22:35Z</time>
      </trkpt>
      <trkpt lat="46.58334" lon="5.87083">
        <ele>799.47</ele>
        <time>2012-08-15T12:22:42Z</time>
      </trkpt>
      <trkpt lat="46.58333" lon="5.87087">
        <ele>799.47</ele>
        <time>2012-08-15T12:22:45Z</time>
      </trkpt>
      <trkpt lat="46.58331" lon="5.87118">
        <ele>799.47</ele>
        <time>2012-08-15T12:23:01Z</time>
      </trkpt>
      <trkpt lat="46.58328" lon="5.87134">
        <ele>798.99</ele>
        <time>2012-08-15T12:23:10Z</time>
      </trkpt>
      <trkpt lat="46.58321" lon="5.87163">
        <ele>798.51</ele>
        <time>2012-08-15T12:23:29Z</time>
      </trkpt>
      <trkpt lat="46.58329" lon="5.87175">
        <ele>797.55</ele>
        <time>2012-08-15T12:23:45Z</time>
      </trkpt>
      <trkpt lat="46.5835" lon="5.87179">
        <ele>797.55</ele>
        <time>2012-08-15T12:24:03Z</time>
      </trkpt>
      <trkpt lat="46.5835" lon="5.87179">
        <ele>797.07</ele>
        <time>2012-08-15T12:24:26Z</time>
      </trkpt>
      <trkpt lat="46.58349" lon="5.87182">
        <ele>797.07</ele>
        <time>2012-08-15T12:24:47Z</time>
      </trkpt>
      <trkpt lat="46.58352" lon="5.87189">
        <ele>797.55</ele>
        <time>2012-08-15T12:25:04Z</time>
      </trkpt>
      <trkpt lat="46.58344" lon="5.87183">
        <ele>798.51</ele>
        <time>2012-08-15T12:25:15Z</time>
      </trkpt>
      <trkpt lat="46.58329" lon="5.87206">
        <ele>799.47</ele>
        <time>2012-08-15T12:25:31Z</time>
      </trkpt>
      <trkpt lat="46.58331" lon="5.87213">
        <ele>799.47</ele>
        <time>2012-08-15T12:25:53Z</time>
      </trkpt>
      <trkpt lat="46.58335" lon="5.87232">
        <ele>798.99</ele>
        <time>2012-08-15T12:26:11Z</time>
      </trkpt>
      <trkpt lat="46.58338" lon="5.87235">
        <ele>798.99</ele>
        <time>2012-08-15T12:26:21Z</time>
      </trkpt>
      <trkpt lat="46.5834" lon="5.87244">
        <ele>798.99</ele>
        <time>2012-08-15T12:26:27Z</time>
      </trkpt>
      <trkpt lat="46.58339" lon="5.87248">
        <ele>798.99</ele>
        <time>2012-08-15T12:26:29Z</time>
      </trkpt>
      <trkpt lat="46.58324" lon="5.87259">
        <ele>798.51</ele>
        <time>2012-08-15T12:26:45Z</time>
      </trkpt>
      <trkpt lat="46.58326" lon="5.87272">
        <ele>798.51</ele>
        <time>2012-08-15T12:27:00Z</time>
      </trkpt>
      <trkpt lat="46.58324" lon="5.87298">
        <ele>798.51</ele>
        <time>2012-08-15T12:27:15Z</time>
      </trkpt>
      <trkpt lat="46.58323" lon="5.87315">
        <ele>799.47</ele>
        <time>2012-08-15T12:27:30Z</time>
      </trkpt>
      <trkpt lat="46.58344" lon="5.87341">
        <ele>799.95</ele>
        <time>2012-08-15T12:27:50Z</time>
      </trkpt>
      <trkpt lat="46.58356" lon="5.87351">
        <ele>799.47</ele>
        <time>2012-08-15T12:28:04Z</time>
      </trkpt>
      <trkpt lat="46.58365" lon="5.87382">
        <ele>798.99</ele>
        <time>2012-08-15T12:28:23Z</time>
      </trkpt>
      <trkpt lat="46.58374" lon="5.87405">
        <ele>798.51</ele>
        <time>2012-08-15T12:28:41Z</time>
      </trkpt>
      <trkpt lat="46.58388" lon="5.87429">
        <ele>798.99</ele>
        <time>2012-08-15T12:28:56Z</time>
      </trkpt>
      <trkpt lat="46.58397" lon="5.8744">
        <ele>798.51</ele>
        <time>2012-08-15T12:29:15Z</time>
      </trkpt>
      <trkpt lat="46.58398" lon="5.87445">
        <ele>798.51</ele>
        <time>2012-08-15T12:29:28Z</time>
      </trkpt>
      <trkpt lat="46.58399" lon="5.87448">
        <ele>798.51</ele>
        <time>2012-08-15T12:29:30Z</time>
      </trkpt>
      <trkpt lat="46.58406" lon="5.87455">
        <ele>799.47</ele>
        <time>2012-08-15T12:29:46Z</time>
      </trkpt>
      <trkpt lat="46.58413" lon="5.87458">
        <ele>799.47</ele>
        <time>2012-08-15T12:29:53Z</time>
      </trkpt>
      <trkpt lat="46.58436" lon="5.87464">
        <ele>799.47</ele>
        <time>2012-08-15T12:30:10Z</time>
      </trkpt>
      <trkpt lat="46.58444" lon="5.87471">
        <ele>799.47</ele>
        <time>2012-08-15T12:30:17Z</time>
      </trkpt>
      <trkpt lat="46.5846" lon="5.87488">
        <ele>800.44</ele>
        <time>2012-08-15T12:30:26Z</time>
      </trkpt>
      <trkpt lat="46.58477" lon="5.87502">
        <ele>802.36</ele>
        <time>2012-08-15T12:30:44Z</time>
      </trkpt>
      <trkpt lat="46.58479" lon="5.87507">
        <ele>800.92</ele>
        <time>2012-08-15T12:31:01Z</time>
      </trkpt>
      <trkpt lat="46.58494" lon="5.87504">
        <ele>799.47</ele>
        <time>2012-08-15T12:31:16Z</time>
      </trkpt>
      <trkpt lat="46.58518" lon="5.87492">
        <ele>798.99</ele>
        <time>2012-08-15T12:31:33Z</time>
      </trkpt>
      <trkpt lat="46.58526" lon="5.87473">
        <ele>798.99</ele>
        <time>2012-08-15T12:31:50Z</time>
      </trkpt>
      <trkpt lat="46.58522" lon="5.87469">
        <ele>799.47</ele>
        <time>2012-08-15T12:32:09Z</time>
      </trkpt>
      <trkpt lat="46.58524" lon="5.87458">
        <ele>799.95</ele>
        <time>2012-08-15T12:32:23Z</time>
      </trkpt>
      <trkpt lat="46.58518" lon="5.87439">
        <ele>801.88</ele>
        <time>2012-08-15T12:32:37Z</time>
      </trkpt>
      <trkpt lat="46.58514" lon="5.87428">
        <ele>804.28</ele>
        <time>2012-08-15T12:32:48Z</time>
      </trkpt>
      <trkpt lat="46.58509" lon="5.87415">
        <ele>802.36</ele>
        <time>2012-08-15T12:33:01Z</time>
      </trkpt>
      <trkpt lat="46.5851" lon="5.87413">
        <ele>802.36</ele>
        <time>2012-08-15T12:33:02Z</time>
      </trkpt>
      <trkpt lat="46.58511" lon="5.874">
        <ele>800.44</ele>
        <time>2012-08-15T12:33:17Z</time>
      </trkpt>
      <trkpt lat="46.58511" lon="5.874">
        <ele>800.44</ele>
        <time>2012-08-15T12:33:46Z</time>
      </trkpt>
      <trkpt lat="46.58511" lon="5.874">
        <ele>800.44</ele>
        <time>2012-08-15T12:34:21Z</time>
      </trkpt>
      <trkpt lat="46.58511" lon="5.87399">
        <ele>800.92</ele>
        <time>2012-08-15T12:34:53Z</time>
      </trkpt>
      <trkpt lat="46.5851" lon="5.874">
        <ele>801.4</ele>
        <time>2012-08-15T12:35:30Z</time>
      </trkpt>
      <trkpt lat="46.5851" lon="5.87399">
        <ele>801.88</ele>
        <time>2012-08-15T12:36:03Z</time>
      </trkpt>
      <trkpt lat="46.58511" lon="5.87397">
        <ele>802.36</ele>
        <time>2012-08-15T12:36:42Z</time>
      </trkpt>
      <trkpt lat="46.58512" lon="5.87396">
        <ele>802.36</ele>
        <time>2012-08-15T12:37:25Z</time>
      </trkpt>
      <trkpt lat="46.58511" lon="5.87398">
        <ele>802.36</ele>
        <time>2012-08-15T12:37:59Z</time>
      </trkpt>
      <trkpt lat="46.58511" lon="5.87406">
        <ele>805.24</ele>
        <time>2012-08-15T12:38:10Z</time>
      </trkpt>
      <trkpt lat="46.58511" lon="5.87421">
        <ele>806.68</ele>
        <time>2012-08-15T12:38:26Z</time>
      </trkpt>
      <trkpt lat="46.58511" lon="5.87436">
        <ele>803.8</ele>
        <time>2012-08-15T12:38:39Z</time>
      </trkpt>
      <trkpt lat="46.58512" lon="5.87447">
        <ele>803.8</ele>
        <time>2012-08-15T12:38:48Z</time>
      </trkpt>
      <trkpt lat="46.58516" lon="5.87462">
        <ele>803.8</ele>
        <time>2012-08-15T12:39:03Z</time>
      </trkpt>
      <trkpt lat="46.58525" lon="5.87473">
        <ele>803.8</ele>
        <time>2012-08-15T12:39:21Z</time>
      </trkpt>
      <trkpt lat="46.58529" lon="5.8748">
        <ele>803.8</ele>
        <time>2012-08-15T12:39:32Z</time>
      </trkpt>
      <trkpt lat="46.58516" lon="5.87495">
        <ele>804.28</ele>
        <time>2012-08-15T12:39:50Z</time>
      </trkpt>
      <trkpt lat="46.58495" lon="5.87512">
        <ele>804.76</ele>
        <time>2012-08-15T12:40:06Z</time>
      </trkpt>
      <trkpt lat="46.5847" lon="5.87519">
        <ele>804.76</ele>
        <time>2012-08-15T12:40:23Z</time>
      </trkpt>
      <trkpt lat="46.58464" lon="5.87515">
        <ele>804.76</ele>
        <time>2012-08-15T12:40:41Z</time>
      </trkpt>
      <trkpt lat="46.58476" lon="5.8752">
        <ele>805.24</ele>
        <time>2012-08-15T12:40:56Z</time>
      </trkpt>
      <trkpt lat="46.58493" lon="5.87522">
        <ele>804.28</ele>
        <time>2012-08-15T12:41:07Z</time>
      </trkpt>
      <trkpt lat="46.585" lon="5.87522">
        <ele>804.28</ele>
        <time>2012-08-15T12:41:10Z</time>
      </trkpt>
      <trkpt lat="46.58526" lon="5.87522">
        <ele>804.28</ele>
        <time>2012-08-15T12:41:22Z</time>
      </trkpt>
      <trkpt lat="46.58551" lon="5.87527">
        <ele>804.28</ele>
        <time>2012-08-15T12:41:37Z</time>
      </trkpt>
      <trkpt lat="46.58563" lon="5.87526">
        <ele>804.28</ele>
        <time>2012-08-15T12:41:47Z</time>
      </trkpt>
      <trkpt lat="46.58592" lon="5.87531">
        <ele>804.28</ele>
        <time>2012-08-15T12:42:03Z</time>
      </trkpt>
      <trkpt lat="46.5861" lon="5.87537">
        <ele>804.28</ele>
        <time>2012-08-15T12:42:16Z</time>
      </trkpt>
      <trkpt lat="46.58608" lon="5.87541">
        <ele>804.28</ele>
        <time>2012-08-15T12:42:32Z</time>
      </trkpt>
      <trkpt lat="46.58608" lon="5.8754">
        <ele>804.28</ele>
        <time>2012-08-15T12:42:48Z</time>
      </trkpt>
      <trkpt lat="46.58609" lon="5.87551">
        <ele>804.76</ele>
        <time>2012-08-15T12:43:07Z</time>
      </trkpt>
      <trkpt lat="46.58625" lon="5.87556">
        <ele>804.76</ele>
        <time>2012-08-15T12:43:20Z</time>
      </trkpt>
      <trkpt lat="46.58641" lon="5.87561">
        <ele>804.76</ele>
        <time>2012-08-15T12:43:27Z</time>
      </trkpt>
      <trkpt lat="46.58669" lon="5.87577">
        <ele>804.76</ele>
        <time>2012-08-15T12:43:40Z</time>
      </trkpt>
      <trkpt lat="46.58685" lon="5.87583">
        <ele>804.28</ele>
        <time>2012-08-15T12:43:57Z</time>
      </trkpt>
      <trkpt lat="46.58709" lon="5.87594">
        <ele>803.8</ele>
        <time>2012-08-15T12:44:15Z</time>
      </trkpt>
      <trkpt lat="46.58711" lon="5.87595">
        <ele>804.28</ele>
        <time>2012-08-15T12:44:16Z</time>
      </trkpt>
      <trkpt lat="46.58719" lon="5.87599">
        <ele>804.28</ele>
        <time>2012-08-15T12:44:27Z</time>
      </trkpt>
      <trkpt lat="46.58731" lon="5.87606">
        <ele>804.28</ele>
        <time>2012-08-15T12:44:44Z</time>
      </trkpt>
      <trkpt lat="46.58732" lon="5.87608">
        <ele>804.76</ele>
        <time>2012-08-15T12:44:56Z</time>
      </trkpt>
      <trkpt lat="46.58746" lon="5.87616">
        <ele>805.24</ele>
        <time>2012-08-15T12:45:11Z</time>
      </trkpt>
      <trkpt lat="46.5876" lon="5.8762">
        <ele>805.24</ele>
        <time>2012-08-15T12:45:17Z</time>
      </trkpt>
      <trkpt lat="46.58788" lon="5.87623">
        <ele>804.76</ele>
        <time>2012-08-15T12:45:33Z</time>
      </trkpt>
      <trkpt lat="46.58815" lon="5.87623">
        <ele>804.28</ele>
        <time>2012-08-15T12:45:45Z</time>
      </trkpt>
      <trkpt lat="46.58822" lon="5.87621">
        <ele>803.32</ele>
        <time>2012-08-15T12:45:57Z</time>
      </trkpt>
      <trkpt lat="46.58832" lon="5.87611">
        <ele>802.84</ele>
        <time>2012-08-15T12:46:11Z</time>
      </trkpt>
      <trkpt lat="46.58838" lon="5.87614">
        <ele>803.32</ele>
        <time>2012-08-15T12:46:16Z</time>
      </trkpt>
      <trkpt lat="46.58843" lon="5.87609">
        <ele>803.32</ele>
        <time>2012-08-15T12:46:20Z</time>
      </trkpt>
      <trkpt lat="46.58864" lon="5.87607">
        <ele>802.84</ele>
        <time>2012-08-15T12:46:37Z</time>
      </trkpt>
      <trkpt lat="46.58866" lon="5.87604">
        <ele>802.36</ele>
        <time>2012-08-15T12:46:52Z</time>
      </trkpt>
      <trkpt lat="46.58863" lon="5.87601">
        <ele>801.4</ele>
        <time>2012-08-15T12:47:22Z</time>
      </trkpt>
      <trkpt lat="46.58862" lon="5.87601">
        <ele>801.88</ele>
        <time>2012-08-15T12:47:44Z</time>
      </trkpt>
      <trkpt lat="46.58862" lon="5.876">
        <ele>801.4</ele>
        <time>2012-08-15T12:48:08Z</time>
      </trkpt>
      <trkpt lat="46.58862" lon="5.876">
        <ele>801.88</ele>
        <time>2012-08-15T12:48:33Z</time>
      </trkpt>
      <trkpt lat="46.58862" lon="5.87599">
        <ele>801.88</ele>
        <time>2012-08-15T12:48:58Z</time>
      </trkpt>
      <trkpt lat="46.58863" lon="5.87599">
        <ele>802.36</ele>
        <time>2012-08-15T12:49:24Z</time>
      </trkpt>
      <trkpt lat="46.58865" lon="5.876">
        <ele>803.8</ele>
        <time>2012-08-15T12:49:42Z</time>
      </trkpt>
      <trkpt lat="46.58866" lon="5.87598">
        <ele>803.8</ele>
        <time>2012-08-15T12:50:06Z</time>
      </trkpt>
      <trkpt lat="46.58863" lon="5.87597">
        <ele>803.32</ele>
        <time>2012-08-15T12:50:26Z</time>
      </trkpt>
      <trkpt lat="46.58864" lon="5.87597">
        <ele>802.84</ele>
        <time>2012-08-15T12:50:55Z</time>
      </trkpt>
      <trkpt lat="46.58864" lon="5.87598">
        <ele>803.32</ele>
        <time>2012-08-15T12:51:19Z</time>
      </trkpt>
      <trkpt lat="46.58872" lon="5.87599">
        <ele>803.8</ele>
        <time>2012-08-15T12:51:49Z</time>
      </trkpt>
      <trkpt lat="46.58871" lon="5.87598">
        <ele>803.32</ele>
        <time>2012-08-15T12:52:17Z</time>
      </trkpt>
      <trkpt lat="46.58871" lon="5.87598">
        <ele>803.32</ele>
        <time>2012-08-15T12:52:45Z</time>
      </trkpt>
      <trkpt lat="46.58871" lon="5.87598">
        <ele>803.32</ele>
        <time>2012-08-15T12:53:15Z</time>
      </trkpt>
      <trkpt lat="46.58871" lon="5.87599">
        <ele>803.32</ele>
        <time>2012-08-15T12:53:49Z</time>
      </trkpt>
      <trkpt lat="46.58869" lon="5.87599">
        <ele>803.32</ele>
        <time>2012-08-15T12:54:16Z</time>
      </trkpt>
      <trkpt lat="46.58869" lon="5.87599">
        <ele>802.84</ele>
        <time>2012-08-15T12:54:49Z</time>
      </trkpt>
      <trkpt lat="46.58868" lon="5.87599">
        <ele>803.8</ele>
        <time>2012-08-15T12:55:19Z</time>
      </trkpt>
      <trkpt lat="46.58868" lon="5.87595">
        <ele>803.8</ele>
        <time>2012-08-15T12:55:47Z</time>
      </trkpt>
      <trkpt lat="46.58867" lon="5.87593">
        <ele>803.32</ele>
        <time>2012-08-15T12:56:10Z</time>
      </trkpt>
      <trkpt lat="46.5887" lon="5.87601">
        <ele>804.28</ele>
        <time>2012-08-15T12:56:32Z</time>
      </trkpt>
      <trkpt lat="46.58871" lon="5.876">
        <ele>803.8</ele>
        <time>2012-08-15T12:56:54Z</time>
      </trkpt>
      <trkpt lat="46.5886" lon="5.87601">
        <ele>803.32</ele>
        <time>2012-08-15T12:57:44Z</time>
      </trkpt>
      <trkpt lat="46.58884" lon="5.87597">
        <ele>802.84</ele>
        <time>2012-08-15T12:58:04Z</time>
      </trkpt>
      <trkpt lat="46.58874" lon="5.876">
        <ele>804.28</ele>
        <time>2012-08-15T12:58:28Z</time>
      </trkpt>
      <trkpt lat="46.58872" lon="5.87601">
        <ele>803.8</ele>
        <time>2012-08-15T12:58:51Z</time>
      </trkpt>
      <trkpt lat="46.58873" lon="5.87603">
        <ele>803.8</ele>
        <time>2012-08-15T12:59:31Z</time>
      </trkpt>
      <trkpt lat="46.58873" lon="5.87603">
        <ele>802.36</ele>
        <time>2012-08-15T13:00:03Z</time>
      </trkpt>
      <trkpt lat="46.58873" lon="5.87603">
        <ele>799.95</ele>
        <time>2012-08-15T13:00:35Z</time>
      </trkpt>
      <trkpt lat="46.58873" lon="5.87603">
        <ele>802.36</ele>
        <time>2012-08-15T13:01:05Z</time>
      </trkpt>
      <trkpt lat="46.58873" lon="5.87603">
        <ele>802.36</ele>
        <time>2012-08-15T13:01:38Z</time>
      </trkpt>
      <trkpt lat="46.58873" lon="5.87603">
        <ele>802.36</ele>
        <time>2012-08-15T13:02:08Z</time>
      </trkpt>
      <trkpt lat="46.58873" lon="5.87603">
        <ele>802.36</ele>
        <time>2012-08-15T13:02:28Z</time>
      </trkpt>
      <trkpt lat="46.58873" lon="5.87603">
        <ele>802.84</ele>
        <time>2012-08-15T13:02:55Z</time>
      </trkpt>
      <trkpt lat="46.58873" lon="5.87603">
        <ele>802.36</ele>
        <time>2012-08-15T13:03:31Z</time>
      </trkpt>
      <trkpt lat="46.58872" lon="5.87604">
        <ele>802.36</ele>
        <time>2012-08-15T13:04:11Z</time>
      </trkpt>
      <trkpt lat="46.58869" lon="5.87604">
        <ele>802.36</ele>
        <time>2012-08-15T13:04:44Z</time>
      </trkpt>
      <trkpt lat="46.58866" lon="5.87601">
        <ele>802.36</ele>
        <time>2012-08-15T13:05:05Z</time>
      </trkpt>
      <trkpt lat="46.58866" lon="5.87602">
        <ele>799.95</ele>
        <time>2012-08-15T13:05:42Z</time>
      </trkpt>
      <trkpt lat="46.58866" lon="5.87602">
        <ele>801.4</ele>
        <time>2012-08-15T13:06:08Z</time>
      </trkpt>
      <trkpt lat="46.58863" lon="5.87599">
        <ele>801.4</ele>
        <time>2012-08-15T13:06:32Z</time>
      </trkpt>
      <trkpt lat="46.58865" lon="5.87597">
        <ele>801.88</ele>
        <time>2012-08-15T13:06:54Z</time>
      </trkpt>
      <trkpt lat="46.58868" lon="5.87596">
        <ele>801.88</ele>
        <time>2012-08-15T13:07:20Z</time>
      </trkpt>
      <trkpt lat="46.58868" lon="5.87596">
        <ele>801.88</ele>
        <time>2012-08-15T13:07:46Z</time>
      </trkpt>
      <trkpt lat="46.58868" lon="5.87597">
        <ele>801.88</ele>
        <time>2012-08-15T13:08:14Z</time>
      </trkpt>
      <trkpt lat="46.58867" lon="5.87599">
        <ele>801.4</ele>
        <time>2012-08-15T13:08:37Z</time>
      </trkpt>
      <trkpt lat="46.5887" lon="5.87599">
        <ele>800.92</ele>
        <time>2012-08-15T13:08:56Z</time>
      </trkpt>
      <trkpt lat="46.5887" lon="5.87599">
        <ele>802.36</ele>
        <time>2012-08-15T13:09:23Z</time>
      </trkpt>
      <trkpt lat="46.5887" lon="5.87599">
        <ele>802.36</ele>
        <time>2012-08-15T13:09:55Z</time>
      </trkpt>
      <trkpt lat="46.58868" lon="5.87598">
        <ele>800.44</ele>
        <time>2012-08-15T13:10:26Z</time>
      </trkpt>
      <trkpt lat="46.58869" lon="5.87599">
        <ele>802.36</ele>
        <time>2012-08-15T13:10:48Z</time>
      </trkpt>
      <trkpt lat="46.58875" lon="5.87602">
        <ele>802.84</ele>
        <time>2012-08-15T13:11:05Z</time>
      </trkpt>
      <trkpt lat="46.58897" lon="5.87607">
        <ele>802.84</ele>
        <time>2012-08-15T13:11:21Z</time>
      </trkpt>
      <trkpt lat="46.58913" lon="5.87607">
        <ele>803.8</ele>
        <time>2012-08-15T13:11:37Z</time>
      </trkpt>
      <trkpt lat="46.58925" lon="5.87614">
        <ele>805.24</ele>
        <time>2012-08-15T13:11:55Z</time>
      </trkpt>
      <trkpt lat="46.58932" lon="5.87614">
        <ele>805.72</ele>
        <time>2012-08-15T13:12:16Z</time>
      </trkpt>
      <trkpt lat="46.58939" lon="5.87621">
        <ele>806.2</ele>
        <time>2012-08-15T13:12:31Z</time>
      </trkpt>
      <trkpt lat="46.58945" lon="5.8762">
        <ele>806.68</ele>
        <time>2012-08-15T13:12:50Z</time>
      </trkpt>
      <trkpt lat="46.5895" lon="5.87622">
        <ele>807.16</ele>
        <time>2012-08-15T13:13:08Z</time>
      </trkpt>
      <trkpt lat="46.58952" lon="5.87625">
        <ele>807.16</ele>
        <time>2012-08-15T13:13:29Z</time>
      </trkpt>
      <trkpt lat="46.58952" lon="5.87625">
        <ele>807.64</ele>
        <time>2012-08-15T13:13:56Z</time>
      </trkpt>
      <trkpt lat="46.58952" lon="5.87625">
        <ele>806.68</ele>
        <time>2012-08-15T13:14:23Z</time>
      </trkpt>
      <trkpt lat="46.58952" lon="5.87625">
        <ele>806.2</ele>
        <time>2012-08-15T13:14:47Z</time>
      </trkpt>
      <trkpt lat="46.58952" lon="5.87625">
        <ele>806.68</ele>
        <time>2012-08-15T13:15:11Z</time>
      </trkpt>
      <trkpt lat="46.58955" lon="5.87628">
        <ele>806.68</ele>
        <time>2012-08-15T13:15:30Z</time>
      </trkpt>
      <trkpt lat="46.58965" lon="5.87627">
        <ele>806.68</ele>
        <time>2012-08-15T13:15:45Z</time>
      </trkpt>
      <trkpt lat="46.58986" lon="5.87635">
        <ele>806.68</ele>
        <time>2012-08-15T13:16:01Z</time>
      </trkpt>
      <trkpt lat="46.58993" lon="5.87637">
        <ele>806.68</ele>
        <time>2012-08-15T13:16:09Z</time>
      </trkpt>
      <trkpt lat="46.59011" lon="5.87647">
        <ele>808.13</ele>
        <time>2012-08-15T13:16:28Z</time>
      </trkpt>
      <trkpt lat="46.59024" lon="5.8765">
        <ele>808.61</ele>
        <time>2012-08-15T13:16:40Z</time>
      </trkpt>
      <trkpt lat="46.5903" lon="5.87653">
        <ele>808.61</ele>
        <time>2012-08-15T13:16:44Z</time>
      </trkpt>
      <trkpt lat="46.59056" lon="5.87669">
        <ele>809.09</ele>
        <time>2012-08-15T13:17:04Z</time>
      </trkpt>
      <trkpt lat="46.59071" lon="5.87677">
        <ele>809.09</ele>
        <time>2012-08-15T13:17:21Z</time>
      </trkpt>
      <trkpt lat="46.59079" lon="5.87681">
        <ele>809.09</ele>
        <time>2012-08-15T13:17:34Z</time>
      </trkpt>
      <trkpt lat="46.59082" lon="5.87682">
        <ele>809.09</ele>
        <time>2012-08-15T13:17:37Z</time>
      </trkpt>
      <trkpt lat="46.59087" lon="5.87684">
        <ele>809.09</ele>
        <time>2012-08-15T13:17:41Z</time>
      </trkpt>
      <trkpt lat="46.59093" lon="5.87684">
        <ele>809.57</ele>
        <time>2012-08-15T13:17:45Z</time>
      </trkpt>
      <trkpt lat="46.59104" lon="5.87682">
        <ele>809.09</ele>
        <time>2012-08-15T13:17:55Z</time>
      </trkpt>
      <trkpt lat="46.5912" lon="5.87668">
        <ele>809.57</ele>
        <time>2012-08-15T13:18:12Z</time>
      </trkpt>
      <trkpt lat="46.5912" lon="5.87666">
        <ele>809.57</ele>
        <time>2012-08-15T13:18:24Z</time>
      </trkpt>
      <trkpt lat="46.59129" lon="5.8766">
        <ele>809.57</ele>
        <time>2012-08-15T13:18:30Z</time>
      </trkpt>
      <trkpt lat="46.59137" lon="5.87648">
        <ele>809.57</ele>
        <time>2012-08-15T13:18:41Z</time>
      </trkpt>
      <trkpt lat="46.5914" lon="5.87643">
        <ele>809.57</ele>
        <time>2012-08-15T13:18:46Z</time>
      </trkpt>
      <trkpt lat="46.59145" lon="5.87628">
        <ele>809.57</ele>
        <time>2012-08-15T13:19:03Z</time>
      </trkpt>
      <trkpt lat="46.59149" lon="5.87617">
        <ele>810.05</ele>
        <time>2012-08-15T13:19:24Z</time>
      </trkpt>
      <trkpt lat="46.59161" lon="5.87604">
        <ele>810.53</ele>
        <time>2012-08-15T13:19:39Z</time>
      </trkpt>
      <trkpt lat="46.5917" lon="5.87598">
        <ele>811.01</ele>
        <time>2012-08-15T13:19:51Z</time>
      </trkpt>
      <trkpt lat="46.59186" lon="5.87591">
        <ele>811.01</ele>
        <time>2012-08-15T13:20:06Z</time>
      </trkpt>
      <trkpt lat="46.59204" lon="5.87584">
        <ele>811.49</ele>
        <time>2012-08-15T13:20:22Z</time>
      </trkpt>
      <trkpt lat="46.59224" lon="5.87581">
        <ele>811.97</ele>
        <time>2012-08-15T13:20:38Z</time>
      </trkpt>
      <trkpt lat="46.5923" lon="5.87582">
        <ele>811.97</ele>
        <time>2012-08-15T13:20:46Z</time>
      </trkpt>
      <trkpt lat="46.59237" lon="5.87579">
        <ele>811.97</ele>
        <time>2012-08-15T13:20:52Z</time>
      </trkpt>
      <trkpt lat="46.59255" lon="5.87556">
        <ele>811.01</ele>
        <time>2012-08-15T13:21:09Z</time>
      </trkpt>
      <trkpt lat="46.59267" lon="5.87533">
        <ele>810.05</ele>
        <time>2012-08-15T13:21:25Z</time>
      </trkpt>
      <trkpt lat="46.59279" lon="5.87515">
        <ele>809.57</ele>
        <time>2012-08-15T13:21:41Z</time>
      </trkpt>
      <trkpt lat="46.59283" lon="5.87507">
        <ele>809.57</ele>
        <time>2012-08-15T13:21:45Z</time>
      </trkpt>
      <trkpt lat="46.59297" lon="5.87491">
        <ele>808.61</ele>
        <time>2012-08-15T13:21:59Z</time>
      </trkpt>
      <trkpt lat="46.59304" lon="5.8749">
        <ele>808.13</ele>
        <time>2012-08-15T13:22:05Z</time>
      </trkpt>
      <trkpt lat="46.59325" lon="5.87481">
        <ele>807.64</ele>
        <time>2012-08-15T13:22:21Z</time>
      </trkpt>
      <trkpt lat="46.59341" lon="5.87476">
        <ele>806.68</ele>
        <time>2012-08-15T13:22:34Z</time>
      </trkpt>
      <trkpt lat="46.59356" lon="5.87467">
        <ele>805.24</ele>
        <time>2012-08-15T13:22:48Z</time>
      </trkpt>
      <trkpt lat="46.59356" lon="5.87466">
        <ele>805.24</ele>
        <time>2012-08-15T13:22:49Z</time>
      </trkpt>
      <trkpt lat="46.59369" lon="5.87457">
        <ele>804.76</ele>
        <time>2012-08-15T13:23:00Z</time>
      </trkpt>
      <trkpt lat="46.59372" lon="5.87456">
        <ele>804.28</ele>
        <time>2012-08-15T13:23:02Z</time>
      </trkpt>
      <trkpt lat="46.59379" lon="5.87451">
        <ele>804.28</ele>
        <time>2012-08-15T13:23:07Z</time>
      </trkpt>
      <trkpt lat="46.59398" lon="5.87439">
        <ele>803.32</ele>
        <time>2012-08-15T13:23:24Z</time>
      </trkpt>
      <trkpt lat="46.5941" lon="5.87422">
        <ele>802.36</ele>
        <time>2012-08-15T13:23:37Z</time>
      </trkpt>
      <trkpt lat="46.59419" lon="5.87409">
        <ele>802.36</ele>
        <time>2012-08-15T13:23:52Z</time>
      </trkpt>
      <trkpt lat="46.59421" lon="5.87401">
        <ele>802.36</ele>
        <time>2012-08-15T13:23:58Z</time>
      </trkpt>
      <trkpt lat="46.59423" lon="5.87392">
        <ele>802.84</ele>
        <time>2012-08-15T13:24:03Z</time>
      </trkpt>
      <trkpt lat="46.59425" lon="5.87386">
        <ele>802.84</ele>
        <time>2012-08-15T13:24:07Z</time>
      </trkpt>
      <trkpt lat="46.59427" lon="5.87371">
        <ele>803.32</ele>
        <time>2012-08-15T13:24:15Z</time>
      </trkpt>
      <trkpt lat="46.59429" lon="5.87365">
        <ele>803.32</ele>
        <time>2012-08-15T13:24:20Z</time>
      </trkpt>
      <trkpt lat="46.59433" lon="5.87332">
        <ele>803.8</ele>
        <time>2012-08-15T13:24:36Z</time>
      </trkpt>
      <trkpt lat="46.59442" lon="5.87307">
        <ele>804.76</ele>
        <time>2012-08-15T13:24:51Z</time>
      </trkpt>
      <trkpt lat="46.59454" lon="5.87281">
        <ele>805.72</ele>
        <time>2012-08-15T13:25:08Z</time>
      </trkpt>
      <trkpt lat="46.59468" lon="5.87256">
        <ele>806.68</ele>
        <time>2012-08-15T13:25:27Z</time>
      </trkpt>
      <trkpt lat="46.59487" lon="5.87231">
        <ele>807.16</ele>
        <time>2012-08-15T13:25:45Z</time>
      </trkpt>
      <trkpt lat="46.59501" lon="5.87211">
        <ele>807.16</ele>
        <time>2012-08-15T13:26:02Z</time>
      </trkpt>
      <trkpt lat="46.59513" lon="5.87193">
        <ele>809.09</ele>
        <time>2012-08-15T13:26:17Z</time>
      </trkpt>
      <trkpt lat="46.59529" lon="5.87182">
        <ele>810.05</ele>
        <time>2012-08-15T13:26:32Z</time>
      </trkpt>
      <trkpt lat="46.59551" lon="5.87172">
        <ele>811.49</ele>
        <time>2012-08-15T13:26:50Z</time>
      </trkpt>
      <trkpt lat="46.59568" lon="5.87157">
        <ele>812.45</ele>
        <time>2012-08-15T13:27:07Z</time>
      </trkpt>
      <trkpt lat="46.59573" lon="5.87153">
        <ele>812.45</ele>
        <time>2012-08-15T13:27:11Z</time>
      </trkpt>
      <trkpt lat="46.59587" lon="5.87131">
        <ele>812.93</ele>
        <time>2012-08-15T13:27:27Z</time>
      </trkpt>
      <trkpt lat="46.59596" lon="5.87125">
        <ele>813.41</ele>
        <time>2012-08-15T13:27:34Z</time>
      </trkpt>
      <trkpt lat="46.59617" lon="5.87117">
        <ele>813.41</ele>
        <time>2012-08-15T13:27:51Z</time>
      </trkpt>
      <trkpt lat="46.59634" lon="5.87109">
        <ele>813.89</ele>
        <time>2012-08-15T13:28:04Z</time>
      </trkpt>
      <trkpt lat="46.59653" lon="5.87109">
        <ele>815.34</ele>
        <time>2012-08-15T13:28:18Z</time>
      </trkpt>
      <trkpt lat="46.5967" lon="5.87114">
        <ele>815.34</ele>
        <time>2012-08-15T13:28:33Z</time>
      </trkpt>
      <trkpt lat="46.59678" lon="5.87118">
        <ele>814.85</ele>
        <time>2012-08-15T13:28:41Z</time>
      </trkpt>
      <trkpt lat="46.597" lon="5.87131">
        <ele>815.34</ele>
        <time>2012-08-15T13:28:58Z</time>
      </trkpt>
      <trkpt lat="46.59709" lon="5.87137">
        <ele>815.34</ele>
        <time>2012-08-15T13:29:06Z</time>
      </trkpt>
      <trkpt lat="46.59723" lon="5.87136">
        <ele>814.85</ele>
        <time>2012-08-15T13:29:16Z</time>
      </trkpt>
      <trkpt lat="46.59736" lon="5.87121">
        <ele>814.37</ele>
        <time>2012-08-15T13:29:29Z</time>
      </trkpt>
      <trkpt lat="46.59737" lon="5.87117">
        <ele>814.37</ele>
        <time>2012-08-15T13:29:31Z</time>
      </trkpt>
      <trkpt lat="46.59739" lon="5.87102">
        <ele>813.89</ele>
        <time>2012-08-15T13:29:38Z</time>
      </trkpt>
      <trkpt lat="46.59729" lon="5.87075">
        <ele>812.45</ele>
        <time>2012-08-15T13:29:53Z</time>
      </trkpt>
      <trkpt lat="46.59719" lon="5.87051">
        <ele>812.93</ele>
        <time>2012-08-15T13:30:09Z</time>
      </trkpt>
      <trkpt lat="46.59719" lon="5.87049">
        <ele>812.93</ele>
        <time>2012-08-15T13:30:11Z</time>
      </trkpt>
      <trkpt lat="46.59714" lon="5.8704">
        <ele>812.93</ele>
        <time>2012-08-15T13:30:16Z</time>
      </trkpt>
      <trkpt lat="46.59704" lon="5.87012">
        <ele>811.49</ele>
        <time>2012-08-15T13:30:32Z</time>
      </trkpt>
      <trkpt lat="46.59694" lon="5.86993">
        <ele>810.53</ele>
        <time>2012-08-15T13:30:44Z</time>
      </trkpt>
      <trkpt lat="46.59685" lon="5.86966">
        <ele>810.05</ele>
        <time>2012-08-15T13:31:00Z</time>
      </trkpt>
      <trkpt lat="46.59674" lon="5.86943">
        <ele>809.09</ele>
        <time>2012-08-15T13:31:13Z</time>
      </trkpt>
      <trkpt lat="46.5966" lon="5.86914">
        <ele>808.61</ele>
        <time>2012-08-15T13:31:30Z</time>
      </trkpt>
      <trkpt lat="46.59656" lon="5.86902">
        <ele>807.64</ele>
        <time>2012-08-15T13:31:39Z</time>
      </trkpt>
      <trkpt lat="46.59643" lon="5.86874">
        <ele>807.64</ele>
        <time>2012-08-15T13:31:55Z</time>
      </trkpt>
      <trkpt lat="46.59637" lon="5.86862">
        <ele>806.68</ele>
        <time>2012-08-15T13:32:06Z</time>
      </trkpt>
      <trkpt lat="46.59634" lon="5.86853">
        <ele>806.2</ele>
        <time>2012-08-15T13:32:10Z</time>
      </trkpt>
      <trkpt lat="46.59628" lon="5.86839">
        <ele>806.2</ele>
        <time>2012-08-15T13:32:19Z</time>
      </trkpt>
      <trkpt lat="46.5962" lon="5.86826">
        <ele>805.72</ele>
        <time>2012-08-15T13:32:29Z</time>
      </trkpt>
      <trkpt lat="46.59608" lon="5.86802">
        <ele>804.76</ele>
        <time>2012-08-15T13:32:42Z</time>
      </trkpt>
      <trkpt lat="46.59604" lon="5.8679">
        <ele>804.28</ele>
        <time>2012-08-15T13:32:53Z</time>
      </trkpt>
      <trkpt lat="46.596" lon="5.86777">
        <ele>804.28</ele>
        <time>2012-08-15T13:32:59Z</time>
      </trkpt>
      <trkpt lat="46.5959" lon="5.86752">
        <ele>803.8</ele>
        <time>2012-08-15T13:33:14Z</time>
      </trkpt>
      <trkpt lat="46.59589" lon="5.86733">
        <ele>802.84</ele>
        <time>2012-08-15T13:33:27Z</time>
      </trkpt>
      <trkpt lat="46.59587" lon="5.86719">
        <ele>802.84</ele>
        <time>2012-08-15T13:33:34Z</time>
      </trkpt>
      <trkpt lat="46.59586" lon="5.86709">
        <ele>803.32</ele>
        <time>2012-08-15T13:33:38Z</time>
      </trkpt>
      <trkpt lat="46.59586" lon="5.86676">
        <ele>801.88</ele>
        <time>2012-08-15T13:33:53Z</time>
      </trkpt>
      <trkpt lat="46.59588" lon="5.86658">
        <ele>802.36</ele>
        <time>2012-08-15T13:34:04Z</time>
      </trkpt>
      <trkpt lat="46.59596" lon="5.86635">
        <ele>802.36</ele>
        <time>2012-08-15T13:34:17Z</time>
      </trkpt>
      <trkpt lat="46.59602" lon="5.86615">
        <ele>801.88</ele>
        <time>2012-08-15T13:34:29Z</time>
      </trkpt>
      <trkpt lat="46.59614" lon="5.86588">
        <ele>800.44</ele>
        <time>2012-08-15T13:34:44Z</time>
      </trkpt>
      <trkpt lat="46.59623" lon="5.86563">
        <ele>799.47</ele>
        <time>2012-08-15T13:34:59Z</time>
      </trkpt>
      <trkpt lat="46.59632" lon="5.86539">
        <ele>799.47</ele>
        <time>2012-08-15T13:35:13Z</time>
      </trkpt>
      <trkpt lat="46.59636" lon="5.86523">
        <ele>798.99</ele>
        <time>2012-08-15T13:35:23Z</time>
      </trkpt>
      <trkpt lat="46.59639" lon="5.86507">
        <ele>798.03</ele>
        <time>2012-08-15T13:35:30Z</time>
      </trkpt>
      <trkpt lat="46.59646" lon="5.8648">
        <ele>797.55</ele>
        <time>2012-08-15T13:35:46Z</time>
      </trkpt>
      <trkpt lat="46.59653" lon="5.86454">
        <ele>797.07</ele>
        <time>2012-08-15T13:36:01Z</time>
      </trkpt>
      <trkpt lat="46.59658" lon="5.8643">
        <ele>796.59</ele>
        <time>2012-08-15T13:36:15Z</time>
      </trkpt>
      <trkpt lat="46.59665" lon="5.86405">
        <ele>795.63</ele>
        <time>2012-08-15T13:36:28Z</time>
      </trkpt>
      <trkpt lat="46.5967" lon="5.8638">
        <ele>795.15</ele>
        <time>2012-08-15T13:36:42Z</time>
      </trkpt>
      <trkpt lat="46.59672" lon="5.86362">
        <ele>795.15</ele>
        <time>2012-08-15T13:36:53Z</time>
      </trkpt>
      <trkpt lat="46.59678" lon="5.86334">
        <ele>794.67</ele>
        <time>2012-08-15T13:37:08Z</time>
      </trkpt>
      <trkpt lat="46.59679" lon="5.86306">
        <ele>793.22</ele>
        <time>2012-08-15T13:37:22Z</time>
      </trkpt>
      <trkpt lat="46.5968" lon="5.86303">
        <ele>793.22</ele>
        <time>2012-08-15T13:37:24Z</time>
      </trkpt>
      <trkpt lat="46.59684" lon="5.86275">
        <ele>793.22</ele>
        <time>2012-08-15T13:37:38Z</time>
      </trkpt>
      <trkpt lat="46.59686" lon="5.86253">
        <ele>793.71</ele>
        <time>2012-08-15T13:37:49Z</time>
      </trkpt>
      <trkpt lat="46.59688" lon="5.86227">
        <ele>793.22</ele>
        <time>2012-08-15T13:38:02Z</time>
      </trkpt>
      <trkpt lat="46.59691" lon="5.86204">
        <ele>792.74</ele>
        <time>2012-08-15T13:38:15Z</time>
      </trkpt>
      <trkpt lat="46.59694" lon="5.86183">
        <ele>792.26</ele>
        <time>2012-08-15T13:38:26Z</time>
      </trkpt>
      <trkpt lat="46.59699" lon="5.86157">
        <ele>791.3</ele>
        <time>2012-08-15T13:38:41Z</time>
      </trkpt>
      <trkpt lat="46.597" lon="5.86135">
        <ele>790.34</ele>
        <time>2012-08-15T13:38:52Z</time>
      </trkpt>
      <trkpt lat="46.59705" lon="5.86114">
        <ele>790.82</ele>
        <time>2012-08-15T13:39:04Z</time>
      </trkpt>
      <trkpt lat="46.59704" lon="5.86105">
        <ele>790.34</ele>
        <time>2012-08-15T13:39:08Z</time>
      </trkpt>
      <trkpt lat="46.59706" lon="5.86072">
        <ele>789.86</ele>
        <time>2012-08-15T13:39:23Z</time>
      </trkpt>
      <trkpt lat="46.59707" lon="5.86064">
        <ele>789.86</ele>
        <time>2012-08-15T13:39:29Z</time>
      </trkpt>
      <trkpt lat="46.59707" lon="5.8606">
        <ele>789.38</ele>
        <time>2012-08-15T13:39:31Z</time>
      </trkpt>
      <trkpt lat="46.59705" lon="5.86042">
        <ele>789.38</ele>
        <time>2012-08-15T13:39:41Z</time>
      </trkpt>
      <trkpt lat="46.59702" lon="5.86029">
        <ele>788.9</ele>
        <time>2012-08-15T13:39:49Z</time>
      </trkpt>
      <trkpt lat="46.59695" lon="5.86">
        <ele>788.9</ele>
        <time>2012-08-15T13:40:03Z</time>
      </trkpt>
      <trkpt lat="46.59692" lon="5.85989">
        <ele>788.42</ele>
        <time>2012-08-15T13:40:10Z</time>
      </trkpt>
      <trkpt lat="46.5969" lon="5.85977">
        <ele>787.94</ele>
        <time>2012-08-15T13:40:15Z</time>
      </trkpt>
      <trkpt lat="46.59688" lon="5.85968">
        <ele>787.94</ele>
        <time>2012-08-15T13:40:21Z</time>
      </trkpt>
      <trkpt lat="46.59684" lon="5.85943">
        <ele>787.94</ele>
        <time>2012-08-15T13:40:35Z</time>
      </trkpt>
      <trkpt lat="46.59681" lon="5.85924">
        <ele>787.46</ele>
        <time>2012-08-15T13:40:46Z</time>
      </trkpt>
      <trkpt lat="46.59679" lon="5.85895">
        <ele>786.98</ele>
        <time>2012-08-15T13:41:00Z</time>
      </trkpt>
      <trkpt lat="46.59679" lon="5.85883">
        <ele>786.5</ele>
        <time>2012-08-15T13:41:09Z</time>
      </trkpt>
      <trkpt lat="46.59681" lon="5.85867">
        <ele>786.5</ele>
        <time>2012-08-15T13:41:18Z</time>
      </trkpt>
      <trkpt lat="46.59681" lon="5.85851">
        <ele>785.53</ele>
        <time>2012-08-15T13:41:32Z</time>
      </trkpt>
      <trkpt lat="46.59681" lon="5.8585">
        <ele>786.02</ele>
        <time>2012-08-15T13:41:33Z</time>
      </trkpt>
      <trkpt lat="46.59683" lon="5.85826">
        <ele>785.05</ele>
        <time>2012-08-15T13:41:46Z</time>
      </trkpt>
      <trkpt lat="46.59685" lon="5.85815">
        <ele>784.57</ele>
        <time>2012-08-15T13:41:53Z</time>
      </trkpt>
      <trkpt lat="46.59686" lon="5.85794">
        <ele>784.09</ele>
        <time>2012-08-15T13:42:06Z</time>
      </trkpt>
      <trkpt lat="46.59687" lon="5.85779">
        <ele>784.09</ele>
        <time>2012-08-15T13:42:13Z</time>
      </trkpt>
      <trkpt lat="46.59688" lon="5.85774">
        <ele>783.61</ele>
        <time>2012-08-15T13:42:17Z</time>
      </trkpt>
      <trkpt lat="46.5969" lon="5.8576">
        <ele>783.61</ele>
        <time>2012-08-15T13:42:23Z</time>
      </trkpt>
      <trkpt lat="46.5969" lon="5.85752">
        <ele>783.61</ele>
        <time>2012-08-15T13:42:29Z</time>
      </trkpt>
      <trkpt lat="46.59691" lon="5.8573">
        <ele>782.65</ele>
        <time>2012-08-15T13:42:41Z</time>
      </trkpt>
      <trkpt lat="46.59693" lon="5.85716">
        <ele>782.17</ele>
        <time>2012-08-15T13:42:49Z</time>
      </trkpt>
      <trkpt lat="46.59691" lon="5.85703">
        <ele>781.69</ele>
        <time>2012-08-15T13:42:57Z</time>
      </trkpt>
      <trkpt lat="46.59691" lon="5.85696">
        <ele>781.69</ele>
        <time>2012-08-15T13:43:01Z</time>
      </trkpt>
      <trkpt lat="46.59691" lon="5.8569">
        <ele>781.21</ele>
        <time>2012-08-15T13:43:06Z</time>
      </trkpt>
      <trkpt lat="46.59691" lon="5.8568">
        <ele>780.73</ele>
        <time>2012-08-15T13:43:11Z</time>
      </trkpt>
      <trkpt lat="46.59691" lon="5.8567">
        <ele>780.73</ele>
        <time>2012-08-15T13:43:24Z</time>
      </trkpt>
      <trkpt lat="46.59691" lon="5.85662">
        <ele>780.73</ele>
        <time>2012-08-15T13:43:33Z</time>
      </trkpt>
      <trkpt lat="46.59691" lon="5.85662">
        <ele>780.73</ele>
        <time>2012-08-15T13:43:55Z</time>
      </trkpt>
      <trkpt lat="46.59689" lon="5.85661">
        <ele>780.25</ele>
        <time>2012-08-15T13:44:17Z</time>
      </trkpt>
      <trkpt lat="46.59685" lon="5.85667">
        <ele>780.25</ele>
        <time>2012-08-15T13:44:33Z</time>
      </trkpt>
      <trkpt lat="46.59687" lon="5.85665">
        <ele>780.73</ele>
        <time>2012-08-15T13:44:44Z</time>
      </trkpt>
      <trkpt lat="46.59689" lon="5.8566">
        <ele>780.25</ele>
        <time>2012-08-15T13:44:57Z</time>
      </trkpt>
      <trkpt lat="46.59691" lon="5.85654">
        <ele>780.25</ele>
        <time>2012-08-15T13:45:00Z</time>
      </trkpt>
      <trkpt lat="46.59696" lon="5.8563">
        <ele>778.81</ele>
        <time>2012-08-15T13:45:14Z</time>
      </trkpt>
      <trkpt lat="46.59695" lon="5.85628">
        <ele>778.81</ele>
        <time>2012-08-15T13:45:16Z</time>
      </trkpt>
      <trkpt lat="46.59694" lon="5.8562">
        <ele>778.81</ele>
        <time>2012-08-15T13:45:20Z</time>
      </trkpt>
      <trkpt lat="46.59697" lon="5.85601">
        <ele>778.32</ele>
        <time>2012-08-15T13:45:34Z</time>
      </trkpt>
      <trkpt lat="46.59701" lon="5.8558">
        <ele>778.32</ele>
        <time>2012-08-15T13:45:45Z</time>
      </trkpt>
      <trkpt lat="46.59708" lon="5.85555">
        <ele>777.36</ele>
        <time>2012-08-15T13:45:58Z</time>
      </trkpt>
      <trkpt lat="46.59713" lon="5.8553">
        <ele>777.36</ele>
        <time>2012-08-15T13:46:11Z</time>
      </trkpt>
      <trkpt lat="46.59713" lon="5.85528">
        <ele>777.36</ele>
        <time>2012-08-15T13:46:13Z</time>
      </trkpt>
      <trkpt lat="46.59729" lon="5.85518">
        <ele>776.88</ele>
        <time>2012-08-15T13:46:26Z</time>
      </trkpt>
      <trkpt lat="46.59734" lon="5.85516">
        <ele>776.4</ele>
        <time>2012-08-15T13:46:32Z</time>
      </trkpt>
      <trkpt lat="46.5975" lon="5.85504">
        <ele>774.96</ele>
        <time>2012-08-15T13:46:45Z</time>
      </trkpt>
      <trkpt lat="46.59757" lon="5.8549">
        <ele>774</ele>
        <time>2012-08-15T13:46:54Z</time>
      </trkpt>
      <trkpt lat="46.5976" lon="5.85485">
        <ele>774.96</ele>
        <time>2012-08-15T13:46:59Z</time>
      </trkpt>
      <trkpt lat="46.59767" lon="5.8548">
        <ele>774.48</ele>
        <time>2012-08-15T13:47:05Z</time>
      </trkpt>
      <trkpt lat="46.59781" lon="5.85476">
        <ele>775.44</ele>
        <time>2012-08-15T13:47:19Z</time>
      </trkpt>
      <trkpt lat="46.59787" lon="5.85475">
        <ele>775.44</ele>
        <time>2012-08-15T13:47:24Z</time>
      </trkpt>
      <trkpt lat="46.59795" lon="5.85471">
        <ele>775.44</ele>
        <time>2012-08-15T13:47:33Z</time>
      </trkpt>
      <trkpt lat="46.59811" lon="5.85466">
        <ele>775.44</ele>
        <time>2012-08-15T13:47:44Z</time>
      </trkpt>
      <trkpt lat="46.59828" lon="5.85458">
        <ele>775.92</ele>
        <time>2012-08-15T13:47:58Z</time>
      </trkpt>
      <trkpt lat="46.59829" lon="5.85456">
        <ele>775.92</ele>
        <time>2012-08-15T13:47:59Z</time>
      </trkpt>
      <trkpt lat="46.5983" lon="5.85451">
        <ele>775.92</ele>
        <time>2012-08-15T13:48:06Z</time>
      </trkpt>
      <trkpt lat="46.59843" lon="5.85459">
        <ele>775.92</ele>
        <time>2012-08-15T13:48:17Z</time>
      </trkpt>
      <trkpt lat="46.59853" lon="5.85461">
        <ele>775.92</ele>
        <time>2012-08-15T13:48:26Z</time>
      </trkpt>
      <trkpt lat="46.59868" lon="5.85466">
        <ele>775.44</ele>
        <time>2012-08-15T13:48:40Z</time>
      </trkpt>
      <trkpt lat="46.59872" lon="5.85466">
        <ele>775.92</ele>
        <time>2012-08-15T13:48:44Z</time>
      </trkpt>
      <trkpt lat="46.59892" lon="5.85472">
        <ele>775.92</ele>
        <time>2012-08-15T13:48:59Z</time>
      </trkpt>
      <trkpt lat="46.59905" lon="5.85471">
        <ele>775.92</ele>
        <time>2012-08-15T13:49:11Z</time>
      </trkpt>
      <trkpt lat="46.59921" lon="5.85474">
        <ele>776.4</ele>
        <time>2012-08-15T13:49:24Z</time>
      </trkpt>
      <trkpt lat="46.59924" lon="5.85473">
        <ele>776.4</ele>
        <time>2012-08-15T13:49:27Z</time>
      </trkpt>
      <trkpt lat="46.59935" lon="5.85473">
        <ele>777.36</ele>
        <time>2012-08-15T13:49:36Z</time>
      </trkpt>
      <trkpt lat="46.59954" lon="5.85468">
        <ele>777.36</ele>
        <time>2012-08-15T13:49:50Z</time>
      </trkpt>
      <trkpt lat="46.59957" lon="5.85468">
        <ele>777.36</ele>
        <time>2012-08-15T13:49:53Z</time>
      </trkpt>
      <trkpt lat="46.59974" lon="5.85463">
        <ele>778.81</ele>
        <time>2012-08-15T13:50:06Z</time>
      </trkpt>
      <trkpt lat="46.5999" lon="5.85458">
        <ele>780.25</ele>
        <time>2012-08-15T13:50:21Z</time>
      </trkpt>
      <trkpt lat="46.59995" lon="5.85454">
        <ele>780.73</ele>
        <time>2012-08-15T13:50:26Z</time>
      </trkpt>
      <trkpt lat="46.60005" lon="5.85449">
        <ele>781.69</ele>
        <time>2012-08-15T13:50:36Z</time>
      </trkpt>
      <trkpt lat="46.60014" lon="5.85445">
        <ele>782.65</ele>
        <time>2012-08-15T13:50:46Z</time>
      </trkpt>
      <trkpt lat="46.60019" lon="5.85442">
        <ele>783.13</ele>
        <time>2012-08-15T13:50:50Z</time>
      </trkpt>
      <trkpt lat="46.60033" lon="5.85441">
        <ele>785.53</ele>
        <time>2012-08-15T13:51:03Z</time>
      </trkpt>
      <trkpt lat="46.60035" lon="5.85441">
        <ele>785.05</ele>
        <time>2012-08-15T13:51:05Z</time>
      </trkpt>
      <trkpt lat="46.60041" lon="5.85441">
        <ele>784.57</ele>
        <time>2012-08-15T13:51:19Z</time>
      </trkpt>
      <trkpt lat="46.60041" lon="5.85441">
        <ele>784.57</ele>
        <time>2012-08-15T13:51:20Z</time>
      </trkpt>
      <trkpt lat="46.60042" lon="5.85431">
        <ele>784.57</ele>
        <time>2012-08-15T13:51:25Z</time>
      </trkpt>
      <trkpt lat="46.60041" lon="5.85422">
        <ele>784.09</ele>
        <time>2012-08-15T13:51:30Z</time>
      </trkpt>
      <trkpt lat="46.60043" lon="5.85413">
        <ele>784.57</ele>
        <time>2012-08-15T13:51:37Z</time>
      </trkpt>
      <trkpt lat="46.60042" lon="5.85396">
        <ele>784.57</ele>
        <time>2012-08-15T13:51:49Z</time>
      </trkpt>
      <trkpt lat="46.6004" lon="5.85387">
        <ele>784.57</ele>
        <time>2012-08-15T13:52:03Z</time>
      </trkpt>
      <trkpt lat="46.60038" lon="5.85385">
        <ele>784.57</ele>
        <time>2012-08-15T13:52:15Z</time>
      </trkpt>
      <trkpt lat="46.60038" lon="5.85384">
        <ele>784.09</ele>
        <time>2012-08-15T13:52:34Z</time>
      </trkpt>
      <trkpt lat="46.6004" lon="5.85385">
        <ele>784.09</ele>
        <time>2012-08-15T13:52:46Z</time>
      </trkpt>
      <trkpt lat="46.6004" lon="5.85385">
        <ele>784.09</ele>
        <time>2012-08-15T13:53:02Z</time>
      </trkpt>
      <trkpt lat="46.6004" lon="5.85385">
        <ele>784.57</ele>
        <time>2012-08-15T13:53:27Z</time>
      </trkpt>
    </trkseg>
  </trk>
</gpx>